sensor_id;sensor_type;location;lat;lon;timestamp;temperature;humidity
17240;DHT22;9943;54.378;18.604;2022-08-19T00:00:28;21.40;99.90
17240;DHT22;9943;54.378;18.604;2022-08-19T00:02:58;21.60;99.90
17240;DHT22;9943;54.378;18.604;2022-08-19T00:05:28;21.50;99.90
17240;DHT22;9943;54.378;18.604;2022-08-19T00:07:59;21.50;99.90
17240;DHT22;9943;54.378;18.604;2022-08-19T00:10:28;21.50;99.90
17240;DHT22;9943;54.378;18.604;2022-08-19T00:13:03;21.50;99.90
17240;DHT22;9943;54.378;18.604;2022-08-19T00:15:39;21.40;99.90
17240;DHT22;9943;54.378;18.604;2022-08-19T00:18:14;21.40;99.90
17240;DHT22;9943;54.378;18.604;2022-08-19T00:20:44;21.40;99.90
17240;DHT22;9943;54.378;18.604;2022-08-19T00:23:16;21.60;99.90
17240;DHT22;9943;54.378;18.604;2022-08-19T00:25:45;21.40;99.90
17240;DHT22;9943;54.378;18.604;2022-08-19T00:28:19;21.40;99.90
17240;DHT22;9943;54.378;18.604;2022-08-19T00:30:52;21.30;99.90
17240;DHT22;9943;54.378;18.604;2022-08-19T00:33:20;21.20;99.90
17240;DHT22;9943;54.378;18.604;2022-08-19T00:35:55;21.40;99.90
17240;DHT22;9943;54.378;18.604;2022-08-19T00:38:28;21.30;99.90
17240;DHT22;9943;54.378;18.604;2022-08-19T00:40:58;21.40;99.90
17240;DHT22;9943;54.378;18.604;2022-08-19T00:43:57;21.40;99.90
17240;DHT22;9943;54.378;18.604;2022-08-19T00:46:32;21.50;99.90
17240;DHT22;9943;54.378;18.604;2022-08-19T00:49:13;21.50;99.90
17240;DHT22;9943;54.378;18.604;2022-08-19T00:51:50;21.60;99.90
17240;DHT22;9943;54.378;18.604;2022-08-19T00:54:23;21.50;99.90
17240;DHT22;9943;54.378;18.604;2022-08-19T00:56:52;21.50;99.90
17240;DHT22;9943;54.378;18.604;2022-08-19T00:59:23;21.50;99.90
17240;DHT22;9943;54.378;18.604;2022-08-19T01:01:58;21.60;99.90
17240;DHT22;9943;54.378;18.604;2022-08-19T01:04:30;21.60;99.90
17240;DHT22;9943;54.378;18.604;2022-08-19T01:07:11;21.50;99.90
17240;DHT22;9943;54.378;18.604;2022-08-19T01:09:41;21.40;99.90
17240;DHT22;9943;54.378;18.604;2022-08-19T01:12:10;21.30;99.90
17240;DHT22;9943;54.378;18.604;2022-08-19T01:14:41;21.50;99.90
17240;DHT22;9943;54.378;18.604;2022-08-19T01:17:12;21.50;99.90
17240;DHT22;9943;54.378;18.604;2022-08-19T01:19:43;21.40;99.90
17240;DHT22;9943;54.378;18.604;2022-08-19T01:22:18;21.40;99.90
17240;DHT22;9943;54.378;18.604;2022-08-19T01:24:58;21.30;99.90
17240;DHT22;9943;54.378;18.604;2022-08-19T01:27:39;21.30;99.90
17240;DHT22;9943;54.378;18.604;2022-08-19T01:30:12;21.30;99.90
17240;DHT22;9943;54.378;18.604;2022-08-19T01:32:43;21.50;99.90
17240;DHT22;9943;54.378;18.604;2022-08-19T01:35:15;21.30;99.90
17240;DHT22;9943;54.378;18.604;2022-08-19T01:37:55;21.20;99.90
17240;DHT22;9943;54.378;18.604;2022-08-19T01:40:29;21.20;99.90
17240;DHT22;9943;54.378;18.604;2022-08-19T01:43:01;21.20;99.90
17240;DHT22;9943;54.378;18.604;2022-08-19T01:45:35;21.10;99.90
17240;DHT22;9943;54.378;18.604;2022-08-19T01:48:08;21.10;99.90
17240;DHT22;9943;54.378;18.604;2022-08-19T01:50:37;21.10;99.90
17240;DHT22;9943;54.378;18.604;2022-08-19T01:53:11;21.00;99.90
17240;DHT22;9943;54.378;18.604;2022-08-19T01:55:43;20.90;99.90
17240;DHT22;9943;54.378;18.604;2022-08-19T01:58:18;20.80;99.90
17240;DHT22;9943;54.378;18.604;2022-08-19T02:00:53;20.90;99.90
17240;DHT22;9943;54.378;18.604;2022-08-19T02:03:24;20.90;99.90
17240;DHT22;9943;54.378;18.604;2022-08-19T02:06:02;20.90;99.90
17240;DHT22;9943;54.378;18.604;2022-08-19T02:08:37;20.90;99.90
17240;DHT22;9943;54.378;18.604;2022-08-19T02:11:19;20.90;99.90
17240;DHT22;9943;54.378;18.604;2022-08-19T02:13:56;20.90;99.90
17240;DHT22;9943;54.378;18.604;2022-08-19T02:16:41;20.90;99.90
17240;DHT22;9943;54.378;18.604;2022-08-19T02:19:21;20.90;99.90
17240;DHT22;9943;54.378;18.604;2022-08-19T02:22:05;20.80;99.90
17240;DHT22;9943;54.378;18.604;2022-08-19T02:24:35;20.90;99.90
17240;DHT22;9943;54.378;18.604;2022-08-19T02:27:06;20.80;99.90
17240;DHT22;9943;54.378;18.604;2022-08-19T02:29:38;20.80;99.90
17240;DHT22;9943;54.378;18.604;2022-08-19T02:32:16;20.80;99.90
17240;DHT22;9943;54.378;18.604;2022-08-19T02:34:46;20.90;99.90
17240;DHT22;9943;54.378;18.604;2022-08-19T02:37:18;20.80;99.90
17240;DHT22;9943;54.378;18.604;2022-08-19T02:40:13;21.10;99.90
17240;DHT22;9943;54.378;18.604;2022-08-19T02:42:51;20.80;99.90
17240;DHT22;9943;54.378;18.604;2022-08-19T02:45:30;20.90;99.90
17240;DHT22;9943;54.378;18.604;2022-08-19T02:48:02;20.60;99.90
17240;DHT22;9943;54.378;18.604;2022-08-19T02:50:32;20.70;99.90
17240;DHT22;9943;54.378;18.604;2022-08-19T02:53:01;20.80;99.90
17240;DHT22;9943;54.378;18.604;2022-08-19T02:55:30;20.70;99.90
17240;DHT22;9943;54.378;18.604;2022-08-19T02:58:10;20.70;99.90
17240;DHT22;9943;54.378;18.604;2022-08-19T03:00:43;20.70;99.90
17240;DHT22;9943;54.378;18.604;2022-08-19T03:03:23;20.90;99.90
17240;DHT22;9943;54.378;18.604;2022-08-19T03:06:08;20.90;99.90
17240;DHT22;9943;54.378;18.604;2022-08-19T03:08:43;20.80;99.90
17240;DHT22;9943;54.378;18.604;2022-08-19T03:11:14;20.90;99.90
17240;DHT22;9943;54.378;18.604;2022-08-19T03:13:52;20.90;99.90
17240;DHT22;9943;54.378;18.604;2022-08-19T03:16:24;20.90;99.90
17240;DHT22;9943;54.378;18.604;2022-08-19T03:18:56;21.00;99.90
17240;DHT22;9943;54.378;18.604;2022-08-19T03:21:28;21.00;99.90
17240;DHT22;9943;54.378;18.604;2022-08-19T03:24:03;20.90;99.90
17240;DHT22;9943;54.378;18.604;2022-08-19T03:26:43;20.90;99.90
17240;DHT22;9943;54.378;18.604;2022-08-19T03:29:13;21.00;99.90
17240;DHT22;9943;54.378;18.604;2022-08-19T03:31:48;20.80;99.90
17240;DHT22;9943;54.378;18.604;2022-08-19T03:34:28;20.90;99.90
17240;DHT22;9943;54.378;18.604;2022-08-19T03:37:01;20.90;99.90
17240;DHT22;9943;54.378;18.604;2022-08-19T03:39:36;20.90;99.90
17240;DHT22;9943;54.378;18.604;2022-08-19T03:42:10;20.90;99.90
17240;DHT22;9943;54.378;18.604;2022-08-19T03:44:47;20.90;99.90
17240;DHT22;9943;54.378;18.604;2022-08-19T03:47:28;21.00;99.90
17240;DHT22;9943;54.378;18.604;2022-08-19T03:50:26;21.00;99.90
17240;DHT22;9943;54.378;18.604;2022-08-19T03:52:57;20.90;99.90
17240;DHT22;9943;54.378;18.604;2022-08-19T03:55:38;21.00;99.90
17240;DHT22;9943;54.378;18.604;2022-08-19T03:58:12;21.00;99.90
17240;DHT22;9943;54.378;18.604;2022-08-19T04:00:46;21.00;99.90
17240;DHT22;9943;54.378;18.604;2022-08-19T04:03:16;21.00;99.90
17240;DHT22;9943;54.378;18.604;2022-08-19T04:05:59;21.00;99.90
17240;DHT22;9943;54.378;18.604;2022-08-19T04:08:45;21.00;99.90
17240;DHT22;9943;54.378;18.604;2022-08-19T04:11:18;21.00;99.90
17240;DHT22;9943;54.378;18.604;2022-08-19T04:13:53;21.10;99.90
17240;DHT22;9943;54.378;18.604;2022-08-19T04:16:26;21.10;99.90
17240;DHT22;9943;54.378;18.604;2022-08-19T04:19:04;21.20;99.90
17240;DHT22;9943;54.378;18.604;2022-08-19T04:21:43;21.10;99.90
17240;DHT22;9943;54.378;18.604;2022-08-19T04:25:01;21.10;99.90
17240;DHT22;9943;54.378;18.604;2022-08-19T04:27:46;21.50;99.90
17240;DHT22;9943;54.378;18.604;2022-08-19T04:30:45;21.20;99.90
17240;DHT22;9943;54.378;18.604;2022-08-19T04:33:17;21.20;99.90
17240;DHT22;9943;54.378;18.604;2022-08-19T04:35:48;21.70;99.90
17240;DHT22;9943;54.378;18.604;2022-08-19T04:38:20;21.30;99.90
17240;DHT22;9943;54.378;18.604;2022-08-19T04:40:51;21.50;99.90
17240;DHT22;9943;54.378;18.604;2022-08-19T04:43:40;21.70;99.90
17240;DHT22;9943;54.378;18.604;2022-08-19T04:46:09;21.70;99.90
17240;DHT22;9943;54.378;18.604;2022-08-19T04:48:43;21.80;99.90
17240;DHT22;9943;54.378;18.604;2022-08-19T04:51:13;21.90;99.90
17240;DHT22;9943;54.378;18.604;2022-08-19T04:53:44;22.00;99.90
17240;DHT22;9943;54.378;18.604;2022-08-19T04:56:18;22.10;99.90
